Time;durP1;ratioP1;P1;durP2;ratioP2;P2;SDS_P1;SDS_P2;PMS_P1;PMS_P2;Temp;Humidity;BMP_temperature;BMP_pressure;BME280_temperature;BME280_humidity;BME280_pressure;Samples;Min_cycle;Max_cycle;Signal;HPM_P1;HPM_P2
2022/09/22 00:01:16;;;;;;;3.10;1.48;;;16.20;60.90;;;;;;5005298;28;20029;-75
2022/09/22 00:03:46;;;;;;;1.83;1.40;;;16.20;61.10;;;;;;5035341;28;20026;-75
2022/09/22 00:06:16;;;;;;;2.03;1.30;;;16.20;60.80;;;;;;5035431;28;20057;-75
2022/09/22 00:08:47;;;;;;;4.38;1.60;;;16.10;60.90;;;;;;4988628;28;20311;-75
2022/09/22 00:11:16;;;;;;;2.55;1.55;;;16.10;60.80;;;;;;5008609;28;20026;-75
2022/09/22 00:13:51;;;;;;;3.90;1.70;;;16.10;60.70;;;;;;5015017;28;20022;-75
2022/09/22 00:16:19;;;;;;;2.40;1.60;;;16.10;60.90;;;;;;5003340;28;20031;-75
2022/09/22 00:18:44;;;;;;;2.95;1.65;;;16.10;60.80;;;;;;4995784;28;20054;-74
2022/09/22 00:21:16;;;;;;;3.42;1.70;;;16.10;61.10;;;;;;4994647;28;20078;-75
2022/09/22 00:23:42;;;;;;;1.75;1.50;;;16.00;61.20;;;;;;4995937;28;20029;-75
2022/09/22 00:26:14;;;;;;;2.45;1.38;;;16.00;61.10;;;;;;4994285;28;20504;-75
2022/09/22 00:28:42;;;;;;;2.33;1.42;;;16.00;61.00;;;;;;4996177;28;20035;-75
2022/09/22 00:31:25;;;;;;;4.18;1.67;;;16.00;61.00;;;;;;4995596;28;20061;-75
2022/09/22 00:33:52;;;;;;;2.60;1.67;;;16.00;61.00;;;;;;4995625;28;20030;-75
2022/09/22 00:36:20;;;;;;;5.45;1.92;;;15.90;61.00;;;;;;4995797;28;20030;-75
2022/09/22 00:38:49;;;;;;;4.82;1.58;;;15.90;61.00;;;;;;4994812;28;20625;-74
2022/09/22 00:41:17;;;;;;;2.10;1.38;;;15.90;61.30;;;;;;4995769;28;20049;-75
2022/09/22 00:43:46;;;;;;;3.85;2.00;;;15.90;61.20;;;;;;4995707;28;20029;-75
2022/09/22 00:46:24;;;;;;;2.90;1.42;;;15.80;61.20;;;;;;5010650;28;20038;-75
2022/09/22 00:48:55;;;;;;;2.67;1.55;;;15.80;61.40;;;;;;4995120;28;20165;-75
2022/09/22 00:51:24;;;;;;;2.53;1.20;;;15.80;61.30;;;;;;4995520;28;20023;-75
2022/09/22 00:54:01;;;;;;;5.95;1.60;;;15.80;61.40;;;;;;4978119;28;20117;-75
2022/09/22 00:56:31;;;;;;;1.98;1.38;;;15.80;61.50;;;;;;4995906;28;20037;-74
2022/09/22 00:59:04;;;;;;;2.20;1.50;;;15.80;61.40;;;;;;4994462;28;20026;-75
2022/09/22 01:01:34;;;;;;;2.47;1.27;;;15.80;61.70;;;;;;4995702;28;20054;-75
2022/09/22 01:03:59;;;;;;;2.13;1.60;;;15.70;61.70;;;;;;4995725;28;20102;-75
2022/09/22 01:06:27;;;;;;;3.25;2.00;;;15.70;61.60;;;;;;4995355;28;20065;-74
2022/09/22 01:08:54;;;;;;;2.28;1.58;;;15.70;61.50;;;;;;4995010;28;20034;-75
2022/09/22 01:11:23;;;;;;;2.67;1.30;;;15.70;61.60;;;;;;5009412;28;20040;-74
2022/09/22 01:14:11;;;;;;;5.18;1.73;;;15.60;61.80;;;;;;5015195;28;20038;-75
2022/09/22 01:16:46;;;;;;;4.20;1.90;;;15.60;61.70;;;;;;4997014;28;20022;-75
2022/09/22 01:19:26;;;;;;;1.90;1.60;;;15.60;61.90;;;;;;5011037;28;20034;-75
2022/09/22 01:22:29;;;;;;;;;;;;;;;;;;;;;
2022/09/22 01:25:08;;;;;;;1.92;1.50;;;15.50;61.70;;;;;;5012583;28;20032;-75
2022/09/22 01:28:09;;;;;;;5.13;1.40;;;15.50;61.70;;;;;;5012041;28;20027;-74
2022/09/22 01:30:57;;;;;;;4.30;1.75;;;15.40;61.80;;;;;;5013768;28;20038;-75
2022/09/22 01:33:34;;;;;;;1.70;1.42;;;15.50;61.70;;;;;;4968233;28;20057;-75
2022/09/22 01:36:24;;;;;;;3.05;1.50;;;15.40;61.50;;;;;;4998639;28;20749;-75
2022/09/22 01:39:10;;;;;;;1.92;1.30;;;15.40;61.60;;;;;;4997397;28;20112;-75
2022/09/22 01:42:22;;;;;;;3.65;2.30;;;15.30;62.00;;;;;;4981298;28;20039;-75
2022/09/22 01:44:55;;;;;;;8.45;1.67;;;15.30;61.90;;;;;;4971137;28;20046;-75
2022/09/22 01:47:27;;;;;;;2.88;1.63;;;15.30;61.90;;;;;;4998326;28;20030;-74
2022/09/22 01:50:00;;;;;;;2.15;1.80;;;15.30;62.00;;;;;;4998288;28;20056;-74
2022/09/22 01:52:29;;;;;;;2.88;2.00;;;15.20;62.40;;;;;;4998311;28;20056;-75
2022/09/22 01:55:04;;;;;;;3.00;1.67;;;15.20;62.50;;;;;;4998271;28;20571;-75
2022/09/22 01:57:37;;;;;;;4.68;1.52;;;15.10;62.90;;;;;;4998541;28;20034;-75
2022/09/22 02:00:06;;;;;;;3.35;1.48;;;15.10;62.70;;;;;;4998333;28;20072;-75
2022/09/22 02:02:57;;;;;;;1.80;1.30;;;15.00;62.80;;;;;;4998015;28;20022;-75
2022/09/22 02:05:51;;;;;;;3.30;1.50;;;15.00;62.70;;;;;;4998000;28;20038;-74
2022/09/22 02:08:27;;;;;;;1.70;1.20;;;15.00;62.50;;;;;;4979860;28;20030;-74
2022/09/22 02:10:56;;;;;;;2.85;1.50;;;15.00;62.70;;;;;;5000111;28;20080;-75
2022/09/22 02:13:22;;;;;;;2.33;1.40;;;15.00;63.10;;;;;;5005934;28;20494;-75
2022/09/22 02:16:00;;;;;;;3.78;1.85;;;14.90;63.10;;;;;;4997830;28;20421;-75
2022/09/22 02:18:44;;;;;;;3.58;2.03;;;14.90;63.00;;;;;;4997887;28;20030;-75
2022/09/22 02:21:10;;;;;;;1.77;1.50;;;14.90;63.00;;;;;;4998328;28;20446;-75
2022/09/22 02:23:36;;;;;;;3.30;1.80;;;14.80;63.40;;;;;;4997611;28;20042;-75
2022/09/22 02:26:04;;;;;;;3.42;1.65;;;14.80;63.00;;;;;;4997539;28;20069;-74
2022/09/22 02:28:32;;;;;;;4.20;2.08;;;14.80;63.10;;;;;;4995742;28;20506;-74
2022/09/22 02:31:03;;;;;;;3.00;1.45;;;14.70;63.20;;;;;;4997454;28;20399;-74
2022/09/22 02:33:32;;;;;;;3.10;1.65;;;14.70;63.40;;;;;;4997635;28;20122;-75
2022/09/22 02:36:37;;;;;;;2.50;1.77;;;14.70;63.80;;;;;;4997564;28;20552;-75
2022/09/22 02:39:36;;;;;;;2.88;1.75;;;14.70;63.60;;;;;;4997039;28;20890;-75
2022/09/22 02:42:31;;;;;;;2.85;1.67;;;14.70;63.50;;;;;;4995653;28;20080;-74
2022/09/22 02:45:08;;;;;;;4.88;1.63;;;14.70;63.50;;;;;;4996192;28;20121;-74
2022/09/22 02:47:51;;;;;;;2.67;1.70;;;14.60;63.80;;;;;;5005919;28;20052;-75
2022/09/22 02:50:21;;;;;;;2.33;1.48;;;14.60;63.50;;;;;;5015823;28;20094;-74
2022/09/22 02:53:00;;;;;;;2.00;1.43;;;14.50;64.10;;;;;;5012339;28;20030;-75
2022/09/22 02:55:25;;;;;;;2.22;1.40;;;14.50;63.70;;;;;;4997636;28;20042;-74
2022/09/22 02:57:51;;;;;;;3.50;2.05;;;14.50;64.00;;;;;;4997092;28;20379;-75
2022/09/22 03:00:17;;;;;;;3.78;1.60;;;14.40;63.80;;;;;;5012539;28;20787;-75
2022/09/22 03:02:42;;;;;;;2.95;1.77;;;14.50;64.00;;;;;;4996694;28;20034;-75
2022/09/22 03:05:08;;;;;;;2.85;1.50;;;14.40;64.10;;;;;;4996777;28;20101;-74
2022/09/22 03:07:34;;;;;;;2.85;1.60;;;14.40;64.30;;;;;;4996849;28;20061;-75
2022/09/22 03:09:59;;;;;;;2.90;1.55;;;14.30;64.40;;;;;;5000018;28;20081;-75
2022/09/22 03:12:25;;;;;;;3.03;1.42;;;14.40;64.20;;;;;;5016480;28;20026;-75
2022/09/22 03:14:50;;;;;;;2.10;1.88;;;14.30;64.30;;;;;;5005323;28;20129;-75
2022/09/22 03:17:16;;;;;;;2.13;1.40;;;14.30;63.90;;;;;;4996513;28;20485;-75
2022/09/22 03:19:42;;;;;;;1.95;1.50;;;14.30;64.10;;;;;;4996566;28;20500;-74
2022/09/22 03:22:08;;;;;;;2.45;1.58;;;14.30;63.90;;;;;;4996117;28;20509;-74
2022/09/22 03:24:33;;;;;;;1.80;1.33;;;14.30;64.40;;;;;;4996629;28;20164;-75
2022/09/22 03:26:59;;;;;;;2.47;1.98;;;14.30;64.40;;;;;;4996979;28;20029;-75
2022/09/22 03:29:24;;;;;;;2.95;1.52;;;14.30;64.40;;;;;;4996545;28;20426;-75
2022/09/22 03:31:50;;;;;;;2.25;1.80;;;14.20;65.00;;;;;;4995530;28;20034;-75
2022/09/22 03:34:16;;;;;;;2.83;1.50;;;14.20;65.00;;;;;;4996536;28;20038;-75
2022/09/22 03:36:41;;;;;;;3.00;1.80;;;14.20;64.40;;;;;;5011208;28;20030;-75
2022/09/22 03:39:07;;;;;;;2.10;1.45;;;14.20;64.10;;;;;;4995921;28;20109;-75
2022/09/22 03:41:33;;;;;;;4.38;1.50;;;14.10;64.40;;;;;;4996517;28;20112;-74
2022/09/22 03:43:59;;;;;;;2.65;1.60;;;14.20;63.90;;;;;;4996159;28;20042;-75
2022/09/22 03:46:24;;;;;;;2.20;1.63;;;14.10;64.40;;;;;;4995996;28;20038;-75
2022/09/22 03:48:50;;;;;;;4.32;1.67;;;14.00;64.70;;;;;;4996679;28;20072;-75
2022/09/22 03:51:16;;;;;;;3.03;2.03;;;14.00;65.10;;;;;;4996237;28;20022;-75
2022/09/22 03:53:41;;;;;;;2.58;1.95;;;14.00;65.50;;;;;;4996242;28;20037;-75
2022/09/22 03:56:13;;;;;;;2.42;1.70;;;14.00;65.30;;;;;;5010810;28;20030;-75
2022/09/22 03:58:39;;;;;;;2.63;1.70;;;14.00;65.20;;;;;;4996282;28;20026;-75
2022/09/22 04:01:06;;;;;;;1.55;1.40;;;14.00;65.00;;;;;;4996026;28;20064;-75
2022/09/22 04:03:32;;;;;;;2.28;1.70;;;14.00;64.80;;;;;;4996119;28;20030;-75
2022/09/22 04:05:58;;;;;;;3.03;2.00;;;13.90;65.50;;;;;;4996118;28;20022;-75
2022/09/22 04:08:24;;;;;;;2.10;1.58;;;13.90;65.30;;;;;;4996517;28;20034;-75
2022/09/22 04:10:49;;;;;;;2.45;1.50;;;13.90;65.00;;;;;;5005838;28;20548;-75
2022/09/22 04:13:17;;;;;;;2.40;1.50;;;13.80;65.30;;;;;;5015353;28;20089;-75
2022/09/22 04:15:45;;;;;;;1.98;1.50;;;13.70;65.40;;;;;;5015233;28;20025;-75
2022/09/22 04:18:14;;;;;;;1.98;1.50;;;13.80;65.70;;;;;;5002836;28;20033;-75
2022/09/22 04:20:44;;;;;;;4.25;1.73;;;13.80;65.20;;;;;;4994622;28;20109;-86
2022/09/22 04:23:11;;;;;;;2.38;1.60;;;13.80;64.90;;;;;;4996181;28;20072;-74
2022/09/22 04:25:37;;;;;;;3.05;1.98;;;13.80;64.90;;;;;;4996351;28;20031;-75
2022/09/22 04:28:03;;;;;;;3.28;1.85;;;13.80;64.90;;;;;;4994919;28;20422;-74
2022/09/22 04:30:32;;;;;;;3.30;2.10;;;13.70;65.10;;;;;;4994467;28;20077;-74
2022/09/22 04:32:58;;;;;;;3.80;1.92;;;13.70;65.30;;;;;;4993962;28;20030;-76
2022/09/22 04:35:27;;;;;;;2.20;1.70;;;13.70;65.30;;;;;;4995659;28;20058;-73
2022/09/22 04:37:56;;;;;;;4.30;1.92;;;13.70;65.50;;;;;;4995665;28;20490;-73
2022/09/22 04:40:23;;;;;;;3.33;2.20;;;13.60;65.50;;;;;;5010855;28;20110;-73
2022/09/22 04:42:49;;;;;;;4.53;1.88;;;13.60;65.20;;;;;;4995734;28;20027;-73
2022/09/22 04:45:15;;;;;;;2.83;1.70;;;13.60;65.20;;;;;;4995523;28;20827;-73
2022/09/22 04:48:01;;;;;;;2.03;1.63;;;13.50;65.80;;;;;;4995900;28;20058;-74
2022/09/22 04:50:27;;;;;;;4.07;1.92;;;13.50;65.80;;;;;;4995033;28;20152;-74
2022/09/22 04:52:55;;;;;;;4.35;2.17;;;13.50;65.70;;;;;;4995214;28;20042;-72
2022/09/22 04:55:22;;;;;;;1.75;1.42;;;13.50;65.40;;;;;;4995336;28;20023;-72
2022/09/22 04:57:52;;;;;;;3.00;1.98;;;13.60;65.10;;;;;;4996705;28;20026;-72
2022/09/22 05:00:18;;;;;;;;;;;13.50;65.00;;;;;;4999480;28;20018;-72
2022/09/22 05:02:44;;;;;;;4.10;2.05;;;13.50;65.10;;;;;;5018594;28;19957;-73
2022/09/22 05:05:11;;;;;;;5.07;2.03;;;13.50;65.10;;;;;;5018954;28;20607;-73
2022/09/22 05:07:45;;;;;;;2.17;1.85;;;13.50;64.90;;;;;;5018799;28;20109;-73
2022/09/22 05:10:11;;;;;;;2.42;1.60;;;13.40;65.00;;;;;;5000295;28;20053;-73
2022/09/22 05:12:41;;;;;;;3.95;1.70;;;13.30;65.20;;;;;;5013887;28;20555;-72
2022/09/22 05:15:08;;;;;;;5.88;2.45;;;13.30;65.10;;;;;;5010319;28;20030;-72
2022/09/22 05:17:35;;;;;;;9.07;4.53;;;13.30;65.20;;;;;;5018645;28;20568;-72
2022/09/22 05:20:03;;;;;;;9.18;4.85;;;13.30;65.20;;;;;;5012202;28;20033;-75
2022/09/22 05:22:29;;;;;;;14.10;5.28;;;13.30;65.20;;;;;;5032146;28;20018;-73
2022/09/22 05:24:55;;;;;;;14.90;6.30;;;13.30;65.30;;;;;;5016469;28;20048;-73
2022/09/22 05:27:26;;;;;;;8.70;5.07;;;13.20;65.30;;;;;;5006235;28;20029;-74
2022/09/22 05:29:52;;;;;;;8.18;5.20;;;13.20;65.30;;;;;;5010102;28;20429;-75
2022/09/22 05:32:18;;;;;;;5.55;4.13;;;13.20;65.40;;;;;;4997360;28;20056;-73
2022/09/22 05:34:44;;;;;;;4.78;3.13;;;13.20;65.40;;;;;;5012249;28;20037;-73
2022/09/22 05:37:09;;;;;;;4.00;2.20;;;13.20;65.40;;;;;;5015635;28;20469;-72
2022/09/22 05:39:35;;;;;;;4.18;2.33;;;13.20;65.60;;;;;;5000548;28;20627;-73
2022/09/22 05:42:01;;;;;;;4.88;2.95;;;13.20;65.70;;;;;;5014525;28;20018;-73
2022/09/22 05:44:27;;;;;;;4.82;2.97;;;13.20;65.60;;;;;;5016949;28;20054;-73
2022/09/22 05:46:52;;;;;;;5.35;2.55;;;13.10;65.60;;;;;;5016064;28;20567;-73
2022/09/22 05:49:18;;;;;;;6.35;3.28;;;13.10;65.60;;;;;;5016866;28;20061;-73
2022/09/22 05:51:43;;;;;;;4.55;4.15;;;13.10;65.60;;;;;;5016086;28;20068;-75
2022/09/22 05:54:09;;;;;;;4.90;2.80;;;13.10;65.60;;;;;;4995087;28;20038;-73
2022/09/22 05:56:35;;;;;;;4.40;2.47;;;13.20;65.60;;;;;;4980658;28;20468;-73
2022/09/22 05:59:00;;;;;;;3.63;2.33;;;13.10;65.70;;;;;;4998685;28;20121;-73
2022/09/22 06:01:26;;;;;;;3.75;2.67;;;13.10;65.60;;;;;;4998347;28;20050;-73
2022/09/22 06:03:52;;;;;;;5.13;2.33;;;13.10;65.60;;;;;;4998487;28;20050;-73
2022/09/22 06:06:17;;;;;;;4.60;2.72;;;13.10;65.60;;;;;;4998763;28;20033;-73
2022/09/22 06:08:43;;;;;;;3.15;2.33;;;13.10;65.40;;;;;;5013131;28;20037;-73
2022/09/22 06:11:09;;;;;;;3.85;2.40;;;13.10;65.60;;;;;;5010080;28;20034;-73
2022/09/22 06:13:35;;;;;;;5.13;2.20;;;13.00;65.40;;;;;;5017848;28;20034;-73
2022/09/22 06:16:01;;;;;;;4.70;2.20;;;13.10;65.30;;;;;;5002675;28;20034;-73
2022/09/22 06:18:28;;;;;;;6.03;2.75;;;13.00;65.40;;;;;;4998130;28;20050;-73
2022/09/22 06:20:54;;;;;;;3.55;2.38;;;12.90;65.80;;;;;;4998096;28;20018;-73
2022/09/22 06:23:21;;;;;;;3.38;2.65;;;13.00;65.70;;;;;;4998394;28;20030;-73
2022/09/22 06:25:46;;;;;;;3.78;2.08;;;13.00;65.70;;;;;;4998076;28;20053;-73
2022/09/22 06:28:15;;;;;;;3.53;2.55;;;13.00;65.70;;;;;;4997837;28;20037;-73
2022/09/22 06:30:41;;;;;;;7.57;2.42;;;13.00;65.70;;;;;;4998369;28;20034;-73
2022/09/22 06:33:08;;;;;;;4.22;2.30;;;13.00;65.90;;;;;;4997639;28;20540;-73
2022/09/22 06:35:37;;;;;;;5.60;2.67;;;13.00;66.10;;;;;;4997827;28;20030;-73
2022/09/22 06:38:05;;;;;;;7.05;2.47;;;13.10;66.00;;;;;;4998180;28;20069;-73
2022/09/22 06:40:31;;;;;;;3.70;2.42;;;13.10;66.10;;;;;;5011517;28;20025;-73
2022/09/22 06:43:00;;;;;;;4.35;2.60;;;13.10;66.30;;;;;;5004889;28;20030;-73
2022/09/22 06:45:28;;;;;;;5.70;2.28;;;13.10;66.20;;;;;;4996100;28;20050;-73
2022/09/22 06:47:57;;;;;;;4.95;2.58;;;13.10;66.20;;;;;;4997531;28;20015;-73
2022/09/22 06:50:24;;;;;;;3.08;2.20;;;13.10;66.30;;;;;;4997923;28;20028;-73
2022/09/22 06:52:50;;;;;;;6.72;2.20;;;13.30;66.10;;;;;;4997945;28;20022;-73
2022/09/22 06:55:19;;;;;;;6.72;2.60;;;14.00;64.60;;;;;;4997273;28;20034;-73
2022/09/22 06:57:45;;;;;;;4.50;2.77;;;14.10;64.20;;;;;;4997423;28;20118;-73
2022/09/22 07:00:13;;;;;;;3.60;2.50;;;13.80;64.60;;;;;;4997267;28;20493;-73
2022/09/22 07:02:39;;;;;;;3.72;2.40;;;13.70;65.20;;;;;;4997450;28;20022;-73
2022/09/22 07:05:04;;;;;;;3.65;2.58;;;13.60;65.80;;;;;;4997604;28;20041;-73
2022/09/22 07:07:31;;;;;;;3.17;2.35;;;13.60;66.40;;;;;;4997391;28;20048;-73
2022/09/22 07:09:57;;;;;;;5.30;2.45;;;13.60;66.60;;;;;;5014809;28;20057;-73
2022/09/22 07:12:24;;;;;;;5.25;2.22;;;13.60;66.90;;;;;;5012969;28;20034;-73
2022/09/22 07:14:51;;;;;;;5.88;2.88;;;13.70;66.70;;;;;;5012015;28;20057;-73
2022/09/22 07:17:20;;;;;;;4.60;2.67;;;13.80;66.70;;;;;;4996945;28;20037;-73
2022/09/22 07:19:46;;;;;;;7.18;2.67;;;14.00;66.10;;;;;;4996841;28;20152;-73
2022/09/22 07:22:17;;;;;;;4.20;2.65;;;14.40;65.70;;;;;;4996948;28;20050;-73
2022/09/22 07:24:44;;;;;;;5.78;2.70;;;14.90;63.10;;;;;;4996817;28;20366;-73
2022/09/22 07:27:11;;;;;;;4.40;2.90;;;15.50;61.80;;;;;;4997357;28;20030;-73
2022/09/22 07:29:37;;;;;;;5.45;2.00;;;15.90;59.70;;;;;;4996705;28;20109;-73
2022/09/22 07:32:03;;;;;;;8.65;2.65;;;16.20;58.20;;;;;;5011661;28;20521;-73
2022/09/22 07:34:29;;;;;;;6.95;2.90;;;16.50;57.90;;;;;;4994980;28;20026;-74
2022/09/22 07:36:55;;;;;;;3.75;1.80;;;17.50;55.30;;;;;;4996575;28;20041;-73
2022/09/22 07:39:22;;;;;;;4.40;2.65;;;18.70;52.50;;;;;;4996683;28;20685;-73
2022/09/22 07:41:47;;;;;;;6.32;2.47;;;19.30;49.90;;;;;;4997051;28;20459;-74
2022/09/22 07:46:59;;;;;;;5.03;2.47;;;19.60;48.80;;;;;;4996613;28;20036;-73
2022/09/22 07:49:25;;;;;;;4.13;2.80;;;18.30;51.00;;;;;;4996475;28;20034;-73
2022/09/22 07:51:53;;;;;;;5.47;2.60;;;17.50;53.70;;;;;;4995224;28;20030;-73
2022/09/22 07:54:20;;;;;;;4.25;2.05;;;16.90;55.80;;;;;;4996850;28;20470;-73
2022/09/22 07:56:46;;;;;;;5.13;2.90;;;16.50;57.00;;;;;;5011481;28;20030;-73
2022/09/22 07:59:15;;;;;;;2.95;2.45;;;16.30;58.20;;;;;;4996669;28;20073;-73
2022/09/22 08:01:47;;;;;;;7.55;2.65;;;16.00;58.50;;;;;;4996726;28;20568;-73
2022/09/22 08:04:15;;;;;;;4.72;2.45;;;15.90;58.90;;;;;;4996288;28;20474;-73
2022/09/22 08:06:42;;;;;;;6.35;2.38;;;15.80;59.50;;;;;;4995198;28;20031;-73
2022/09/22 08:09:10;;;;;;;5.93;2.72;;;15.80;59.90;;;;;;4996332;28;20106;-73
2022/09/22 08:11:35;;;;;;;4.43;2.35;;;15.80;59.80;;;;;;5001522;28;20420;-73
2022/09/22 08:14:04;;;;;;;3.72;2.50;;;15.80;59.90;;;;;;4996308;28;20034;-73
2022/09/22 08:16:33;;;;;;;3.08;2.63;;;15.80;59.50;;;;;;4996071;28;20057;-73
2022/09/22 08:19:02;;;;;;;3.80;2.20;;;15.90;59.20;;;;;;4996658;28;20030;-73
2022/09/22 08:21:34;;;;;;;4.22;2.33;;;15.90;59.30;;;;;;5011257;28;20029;-73
2022/09/22 08:24:03;;;;;;;4.97;2.88;;;16.00;59.10;;;;;;4978867;28;20030;-73
2022/09/22 08:26:29;;;;;;;8.15;2.85;;;15.90;58.60;;;;;;5011636;28;20023;-73
2022/09/22 08:28:56;;;;;;;3.30;2.40;;;16.00;59.30;;;;;;4996133;28;20042;-73
2022/09/22 08:31:24;;;;;;;6.70;2.50;;;16.00;58.20;;;;;;4996337;28;20035;-73
2022/09/22 08:33:51;;;;;;;3.67;2.45;;;16.00;57.60;;;;;;5029927;28;20042;-73
2022/09/22 08:36:17;;;;;;;4.93;3.55;;;15.90;58.40;;;;;;5018757;28;20397;-73
2022/09/22 08:38:46;;;;;;;6.05;2.78;;;16.00;59.00;;;;;;4988986;28;20030;-73
2022/09/22 08:41:28;;;;;;;5.50;2.45;;;16.10;59.20;;;;;;5019552;28;20029;-73
2022/09/22 08:43:59;;;;;;;3.65;2.58;;;16.30;60.00;;;;;;5019479;28;20424;-73
2022/09/22 08:46:34;;;;;;;5.22;2.80;;;16.40;59.30;;;;;;4985564;28;20041;-73
2022/09/22 08:52:10;;;;;;;3.78;2.10;;;16.60;59.00;;;;;;5014474;28;20467;-73
2022/09/22 08:54:37;;;;;;;5.70;2.47;;;16.70;59.30;;;;;;4998694;28;20092;-73
2022/09/22 08:57:21;;;;;;;3.45;2.83;;;16.80;58.50;;;;;;4999693;28;20439;-73
2022/09/22 09:00:16;;;;;;;4.88;2.53;;;16.80;58.40;;;;;;5014642;28;20041;-74
2022/09/22 09:03:00;;;;;;;3.58;2.15;;;17.00;58.70;;;;;;5034153;28;20026;-74
2022/09/22 09:05:29;;;;;;;6.15;2.45;;;17.10;57.10;;;;;;5019069;28;20104;-73
2022/09/22 09:08:10;;;;;;;3.92;2.22;;;17.40;57.60;;;;;;5013027;28;20496;-73
2022/09/22 09:10:38;;;;;;;3.58;2.33;;;17.90;56.90;;;;;;5007298;28;20048;-74
2022/09/22 09:13:40;;;;;;;3.13;2.45;;;18.10;56.40;;;;;;5010596;28;20026;-74
2022/09/22 09:16:32;;;;;;;5.72;2.83;;;18.10;56.70;;;;;;4978094;28;20043;-74
2022/09/22 09:19:14;;;;;;;6.07;2.28;;;17.90;56.10;;;;;;5014799;28;20031;-74
2022/09/22 09:21:49;;;;;;;4.40;2.58;;;17.80;57.10;;;;;;5014341;28;20104;-74
2022/09/22 09:24:33;;;;;;;4.75;2.47;;;17.80;57.30;;;;;;4999348;28;20018;-73
2022/09/22 09:27:10;;;;;;;7.38;2.70;;;17.80;57.10;;;;;;5000925;28;20034;-74
2022/09/22 09:29:43;;;;;;;3.30;2.05;;;17.70;57.20;;;;;;5018709;28;20413;-74
2022/09/22 09:32:50;;;;;;;3.70;2.65;;;17.70;57.90;;;;;;5018566;28;20080;-74
2022/09/22 09:35:36;;;;;;;5.35;2.30;;;17.80;58.40;;;;;;4967441;28;20070;-74
2022/09/22 09:38:06;;;;;;;5.05;2.70;;;17.80;57.90;;;;;;4988360;28;20117;-74
2022/09/22 09:40:32;;;;;;;3.10;2.08;;;17.90;58.40;;;;;;4998824;28;20023;-74
2022/09/22 09:43:03;;;;;;;6.05;2.20;;;18.00;58.20;;;;;;4998807;28;20031;-74
2022/09/22 09:45:50;;;;;;;6.25;2.70;;;18.10;56.70;;;;;;4997355;28;20069;-73
2022/09/22 09:48:37;;;;;;;4.50;2.30;;;18.10;55.30;;;;;;4999246;28;20086;-74
2022/09/22 09:51:04;;;;;;;2.90;2.20;;;18.00;56.30;;;;;;4998688;28;20018;-74
2022/09/22 09:53:33;;;;;;;6.22;2.75;;;18.10;56.50;;;;;;4998677;28;20029;-74
2022/09/22 09:55:59;;;;;;;7.60;1.95;;;18.20;57.00;;;;;;4997176;28;20402;-74
2022/09/22 10:01:17;;;;;;;4.00;1.80;;;18.40;56.40;;;;;;4982588;28;20513;-74
2022/09/22 10:03:53;;;;;;;3.05;1.90;;;18.50;55.80;;;;;;5013460;28;20463;-72
2022/09/22 10:06:24;;;;;;;3.35;1.38;;;18.60;54.90;;;;;;4998372;28;20027;-72
2022/09/22 10:08:50;;;;;;;2.55;1.50;;;18.60;52.60;;;;;;4998413;28;20032;-72
2022/09/22 10:11:28;;;;;;;6.93;1.77;;;18.60;53.20;;;;;;5010228;28;20105;-72
2022/09/22 10:13:57;;;;;;;2.75;1.50;;;18.70;52.90;;;;;;4998409;28;20034;-72
2022/09/22 10:16:29;;;;;;;3.35;1.75;;;18.70;53.50;;;;;;4998111;28;20026;-72
2022/09/22 10:18:57;;;;;;;2.92;1.27;;;18.80;53.40;;;;;;4998595;28;20041;-72
2022/09/22 10:21:24;;;;;;;3.95;1.30;;;18.80;51.50;;;;;;5013114;28;20018;-72
2022/09/22 10:23:51;;;;;;;3.40;1.50;;;18.80;50.30;;;;;;4998502;28;20027;-72
2022/09/22 10:26:29;;;;;;;1.65;1.15;;;18.80;49.90;;;;;;4998539;28;20034;-73
2022/09/22 10:29:13;;;;;;;2.30;1.45;;;18.90;51.20;;;;;;5012747;28;20051;-73
2022/09/22 10:31:40;;;;;;;1.85;1.00;;;19.00;51.60;;;;;;5012772;28;20030;-72
2022/09/22 10:34:29;;;;;;;2.00;1.30;;;19.10;49.80;;;;;;4998314;28;20043;-72
2022/09/22 10:36:56;;;;;;;2.03;1.15;;;19.10;50.80;;;;;;4997925;28;20033;-72
2022/09/22 10:39:31;;;;;;;2.50;1.15;;;19.20;48.50;;;;;;4997814;28;20030;-72
2022/09/22 10:42:05;;;;;;;3.08;1.20;;;19.20;49.20;;;;;;4997822;28;20085;-72
2022/09/22 10:44:31;;;;;;;1.40;0.80;;;19.20;48.70;;;;;;4998113;28;20055;-72
2022/09/22 10:47:15;;;;;;;3.25;1.10;;;19.30;47.50;;;;;;5001084;28;20611;-72
2022/09/22 10:50:00;;;;;;;2.95;1.02;;;19.30;47.90;;;;;;5025045;28;20030;-72
2022/09/22 10:53:09;;;;;;;4.22;1.10;;;19.40;48.80;;;;;;5017105;28;20083;-73
2022/09/22 10:55:45;;;;;;;3.72;1.38;;;19.50;47.60;;;;;;4970819;28;20402;-73
2022/09/22 10:58:32;;;;;;;2.42;1.25;;;19.50;47.50;;;;;;4997431;28;20109;-73
2022/09/22 11:01:30;;;;;;;2.17;1.33;;;19.60;47.60;;;;;;4997710;28;20027;-72
2022/09/22 11:04:19;;;;;;;3.58;1.50;;;19.60;47.50;;;;;;4961231;28;20070;-73
2022/09/22 11:13:03;;;;;;;6.40;2.40;;;19.90;48.70;;;;;;4997417;28;20041;-72
2022/09/22 11:15:46;;;;;;;2.90;1.60;;;20.00;47.50;;;;;;4995826;28;20027;-73
2022/09/22 11:18:44;;;;;;;4.60;1.50;;;19.90;47.70;;;;;;4997050;28;20034;-73
2022/09/22 11:21:17;;;;;;;4.88;1.58;;;20.00;46.60;;;;;;4954315;28;20057;-73
2022/09/22 11:24:08;;;;;;;4.63;1.73;;;20.10;47.90;;;;;;4997042;28;20022;-73
2022/09/22 11:26:57;;;;;;;2.33;1.42;;;20.10;46.60;;;;;;4997016;28;20041;-73
2022/09/22 11:29:31;;;;;;;3.17;1.27;;;20.10;46.30;;;;;;4996754;28;20076;-73
2022/09/22 11:32:12;;;;;;;3.00;1.50;;;20.20;46.70;;;;;;4996682;28;20109;-73
2022/09/22 11:35:00;;;;;;;2.40;1.63;;;20.20;47.00;;;;;;4996976;28;20025;-72
2022/09/22 11:37:31;;;;;;;3.08;1.38;;;20.20;47.40;;;;;;4996950;28;20045;-73
2022/09/22 11:40:31;;;;;;;3.17;1.27;;;20.20;46.70;;;;;;5011746;28;20397;-73
2022/09/22 11:43:14;;;;;;;1.75;1.20;;;20.30;47.20;;;;;;4996644;28;20390;-72
2022/09/22 11:45:46;;;;;;;1.95;1.10;;;20.40;47.30;;;;;;5011973;28;20081;-80
2022/09/22 11:48:49;;;;;;;3.47;1.25;;;20.50;47.30;;;;;;4996708;28;20030;-78
2022/09/22 11:51:41;;;;;;;3.38;1.30;;;20.60;47.20;;;;;;5011594;28;20026;-77
2022/09/22 11:54:45;;;;;;;3.65;1.30;;;20.60;46.70;;;;;;4969886;28;20049;-77
2022/09/22 11:57:16;;;;;;;4.10;1.10;;;20.70;46.40;;;;;;5011428;28;20038;-79
2022/09/22 11:59:58;;;;;;;2.75;1.30;;;20.80;46.00;;;;;;4995339;28;20023;-79
2022/09/22 12:02:38;;;;;;;3.00;1.10;;;20.80;45.80;;;;;;5011749;28;20409;-79
2022/09/22 12:05:12;;;;;;;6.88;1.80;;;20.80;46.80;;;;;;5012188;28;20065;-81
2022/09/22 12:07:56;;;;;;;3.30;1.20;;;20.80;45.60;;;;;;4995757;28;20049;-81
2022/09/22 12:10:38;;;;;;;4.10;1.20;;;20.80;46.20;;;;;;5002389;28;20029;-77
2022/09/22 12:13:14;;;;;;;2.95;1.00;;;20.90;45.20;;;;;;5015966;28;20048;-79
2022/09/22 12:15:54;;;;;;;3.42;0.93;;;20.90;45.80;;;;;;4998087;28;20084;-80
2022/09/22 12:18:31;;;;;;;2.47;1.20;;;20.90;45.30;;;;;;5031110;28;20077;-80
2022/09/22 12:21:18;;;;;;;1.88;1.00;;;21.00;45.40;;;;;;5031191;28;20030;-79
2022/09/22 12:23:47;;;;;;;3.72;1.10;;;21.00;45.60;;;;;;4983562;28;20393;-78
2022/09/22 12:26:24;;;;;;;2.15;1.20;;;21.10;46.30;;;;;;5000415;28;20042;-84
2022/09/22 12:28:49;;;;;;;3.30;1.45;;;21.10;45.80;;;;;;5012529;28;20030;-87
2022/09/22 12:31:17;;;;;;;2.70;1.15;;;21.20;46.20;;;;;;5014689;28;20045;-82
2022/09/22 12:33:48;;;;;;;1.90;1.20;;;21.20;45.70;;;;;;4987756;28;20034;-84
2022/09/22 12:36:16;;;;;;;3.72;1.33;;;21.20;45.20;;;;;;5011275;28;20030;-87
2022/09/22 12:38:43;;;;;;;3.22;1.38;;;21.30;46.00;;;;;;4996398;28;20565;-80
2022/09/22 12:41:16;;;;;;;1.63;1.30;;;21.30;45.00;;;;;;4978792;28;20034;-83
2022/09/22 12:43:44;;;;;;;2.53;1.17;;;21.40;45.00;;;;;;4996433;28;20050;-83
2022/09/22 12:46:26;;;;;;;2.67;1.00;;;21.30;44.50;;;;;;4995090;28;20062;-85
2022/09/22 12:48:53;;;;;;;1.50;1.00;;;21.30;44.40;;;;;;5011362;28;20057;-83
2022/09/22 12:51:24;;;;;;;3.25;1.25;;;21.30;44.60;;;;;;5001279;28;20485;-87
2022/09/22 12:53:51;;;;;;;2.05;1.33;;;21.40;45.60;;;;;;5015809;28;20034;-83
2022/09/22 12:56:45;;;;;;;3.25;1.10;;;21.50;45.00;;;;;;5031088;28;20041;-85
2022/09/22 12:59:39;;;;;;;11.55;1.17;;;21.50;45.60;;;;;;5015131;28;20539;-85
2022/09/22 13:02:12;;;;;;;3.58;1.20;;;21.60;45.70;;;;;;4995769;28;20026;-84
2022/09/22 13:04:38;;;;;;;3.13;1.00;;;21.70;44.90;;;;;;5011065;28;20029;-84
2022/09/22 13:07:40;;;;;;;3.78;1.20;;;21.70;44.30;;;;;;5011319;28;20030;-83
2022/09/22 13:10:24;;;;;;;3.25;1.30;;;21.70;44.00;;;;;;4982524;28;20069;-85
2022/09/22 13:13:04;;;;;;;5.95;1.38;;;21.80;44.60;;;;;;4978323;28;20453;-88
2022/09/22 13:15:50;;;;;;;3.17;1.33;;;21.80;44.10;;;;;;5011805;28;20026;-87
2022/09/22 13:18:28;;;;;;;1.85;1.02;;;21.70;44.20;;;;;;4996056;28;20125;-86
2022/09/22 13:20:54;;;;;;;2.45;0.90;;;21.80;44.10;;;;;;5014981;28;20033;-89
2022/09/22 13:23:19;;;;;;;3.03;1.00;;;21.80;43.80;;;;;;5020809;28;20113;-87
2022/09/22 13:25:45;;;;;;;6.13;1.40;;;21.80;43.80;;;;;;5034519;28;20041;-88
2022/09/22 13:28:20;;;;;;;3.00;0.93;;;21.70;44.70;;;;;;5018911;28;20022;-88
2022/09/22 13:30:57;;;;;;;1.77;1.17;;;21.80;44.40;;;;;;5001729;28;20065;-86